createdAt,value
2018-03-22T00:00:08.416Z,8.50
2018-03-22T00:02:35.895Z,12.47
2018-03-22T00:05:03.350Z,14.83
2018-03-22T00:07:30.843Z,13.17
2018-03-22T00:09:58.320Z,13.40
2018-03-22T00:12:25.818Z,13.97
2018-03-22T00:14:53.278Z,15.10
2018-03-22T00:17:20.766Z,13.60
2018-03-22T00:19:48.250Z,10.43
2018-03-22T00:25:16.742Z,11.20
2018-03-22T00:27:44.266Z,14.87
2018-03-22T00:30:11.754Z,14.90
2018-03-22T00:32:39.243Z,13.90
2018-03-22T00:35:06.705Z,11.80
2018-03-22T00:37:34.197Z,11.37
2018-03-22T00:40:01.653Z,13.83
2018-03-22T00:42:29.165Z,15.30
2018-03-22T00:44:57.381Z,12.17
2018-03-22T00:47:24.870Z,8.60
2018-03-22T00:49:52.385Z,13.40
2018-03-22T00:52:19.860Z,7.50
2018-03-22T00:54:47.345Z,10.27
2018-03-22T00:57:14.828Z,13.57
2018-03-22T00:59:42.306Z,9.17
2018-03-22T01:02:09.764Z,8.30
2018-03-22T01:04:37.245Z,10.90
2018-03-22T01:07:04.709Z,11.57
2018-03-22T01:09:32.189Z,14.30
2018-03-22T01:11:59.690Z,15.07
2018-03-22T01:14:27.937Z,9.50
2018-03-22T01:16:55.409Z,7.07
2018-03-22T01:19:23.720Z,13.30
2018-03-22T01:21:51.166Z,9.30
2018-03-22T01:24:18.621Z,8.33
2018-03-22T01:26:46.866Z,9.47
2018-03-22T01:29:14.354Z,10.70
2018-03-22T01:31:41.849Z,15.37
2018-03-22T01:34:09.301Z,9.13
2018-03-22T01:36:36.785Z,12.10
2018-03-22T01:39:04.237Z,12.50
2018-03-22T01:41:31.708Z,15.00
2018-03-22T01:43:59.177Z,13.07
2018-03-22T01:46:26.667Z,7.67
2018-03-22T01:48:54.229Z,12.37
2018-03-22T01:51:22.456Z,11.70
2018-03-22T01:53:49.950Z,13.60
2018-03-22T01:56:18.177Z,13.00
2018-03-22T01:58:45.649Z,15.10
2018-03-22T02:01:13.130Z,15.17
2018-03-22T02:03:40.587Z,14.40
2018-03-22T02:06:08.062Z,11.67
2018-03-22T02:08:35.508Z,12.23
2018-03-22T02:11:03.752Z,13.60
2018-03-22T02:13:31.217Z,10.27
2018-03-22T02:15:58.688Z,14.47
2018-03-22T02:18:26.160Z,9.17
2018-03-22T02:20:54.404Z,13.53
2018-03-22T02:23:21.873Z,14.50
2018-03-22T02:25:49.358Z,11.47
2018-03-22T02:28:17.601Z,14.23
2018-03-22T02:30:45.061Z,14.33
2018-03-22T02:33:12.577Z,14.47
2018-03-22T02:35:40.026Z,14.50
2018-03-22T02:38:07.478Z,13.10
2018-03-22T02:40:34.969Z,14.90
2018-03-22T02:43:02.442Z,14.10
2018-03-22T02:45:29.913Z,15.13
2018-03-22T02:47:57.368Z,15.43
2018-03-22T02:50:24.855Z,13.03
2018-03-22T02:52:52.322Z,11.40
2018-03-22T02:55:19.801Z,12.10
2018-03-22T02:57:47.284Z,11.10
2018-03-22T03:00:14.778Z,13.40
2018-03-22T03:02:42.242Z,15.03
2018-03-22T03:05:10.485Z,13.57
2018-03-22T03:07:37.965Z,15.60
2018-03-22T03:10:05.578Z,13.27
2018-03-22T03:12:33.045Z,13.63
2018-03-22T03:15:00.521Z,14.53
2018-03-22T03:17:27.998Z,14.07
2018-03-22T03:19:55.493Z,10.33
2018-03-22T03:22:22.956Z,16.77
2018-03-22T03:24:50.413Z,14.93
2018-03-22T03:27:17.892Z,13.67
2018-03-22T03:29:45.357Z,14.37
2018-03-22T03:32:12.833Z,16.40
2018-03-22T03:34:40.330Z,14.70
2018-03-22T03:37:07.794Z,14.23
2018-03-22T03:39:35.367Z,14.90
2018-03-22T03:42:02.858Z,15.50
2018-03-22T03:44:30.341Z,14.60
2018-03-22T03:46:57.812Z,9.53
2018-03-22T03:49:25.278Z,16.80
2018-03-22T03:51:52.976Z,16.13
2018-03-22T03:54:20.462Z,13.50
2018-03-22T03:56:47.920Z,13.30
2018-03-22T03:59:15.407Z,15.00
2018-03-22T04:01:42.864Z,16.03
2018-03-22T04:04:10.337Z,14.03
2018-03-22T04:06:38.584Z,14.40
2018-03-22T04:09:06.072Z,13.67
2018-03-22T04:11:34.329Z,10.90
2018-03-22T04:14:01.790Z,7.70
2018-03-22T04:16:29.264Z,14.70
2018-03-22T04:18:56.730Z,13.10
2018-03-22T04:21:24.969Z,9.20
2018-03-22T04:23:52.432Z,10.73
2018-03-22T04:26:19.925Z,16.10
2018-03-22T04:28:47.389Z,13.83
2018-03-22T04:31:14.850Z,17.27
2018-03-22T04:33:42.343Z,8.70
2018-03-22T04:36:09.825Z,16.90
2018-03-22T04:38:37.284Z,16.17
2018-03-22T04:41:04.772Z,17.03
2018-03-22T04:43:33.025Z,15.27
2018-03-22T04:46:00.481Z,13.07
2018-03-22T04:48:27.968Z,15.97
2018-03-22T04:50:57.328Z,7.00
2018-03-22T04:53:24.784Z,13.60
2018-03-22T04:55:52.256Z,19.07
2018-03-22T04:58:20.341Z,15.60
2018-03-22T05:00:48.574Z,9.43
2018-03-22T05:03:16.065Z,16.87
2018-03-22T05:05:43.542Z,18.00
2018-03-22T05:08:11.821Z,14.40
2018-03-22T05:10:40.070Z,9.97
2018-03-22T05:13:07.533Z,8.57
2018-03-22T05:15:35.017Z,13.70
2018-03-22T05:18:03.236Z,10.80
2018-03-22T05:20:30.763Z,11.43
2018-03-22T05:22:58.217Z,15.03
2018-03-22T05:25:25.698Z,12.90
2018-03-22T05:27:53.186Z,10.63
2018-03-22T05:30:20.640Z,9.67
2018-03-22T05:32:48.123Z,8.90
2018-03-22T05:35:15.589Z,10.03
2018-03-22T05:37:43.832Z,11.40
2018-03-22T05:40:11.314Z,9.83
2018-03-22T05:42:38.777Z,15.20
2018-03-22T05:45:06.241Z,14.70
2018-03-22T05:47:33.712Z,12.70
2018-03-22T05:50:01.177Z,11.60
2018-03-22T05:52:28.657Z,14.93
2018-03-22T05:54:56.137Z,11.30
2018-03-22T05:57:23.585Z,16.20
2018-03-22T05:59:51.108Z,8.40
2018-03-22T06:02:18.585Z,5.77
2018-03-22T06:04:46.085Z,14.43
2018-03-22T06:07:13.540Z,10.90
2018-03-22T06:09:41.002Z,13.60
2018-03-22T06:12:08.472Z,8.93
2018-03-22T06:14:35.929Z,15.23
2018-03-22T06:17:03.406Z,14.67
2018-03-22T06:19:30.877Z,19.30
2018-03-22T06:21:58.355Z,16.97
2018-03-22T06:24:25.833Z,11.70
2018-03-22T06:26:53.310Z,14.80
2018-03-22T06:29:20.801Z,19.03
2018-03-22T06:31:49.022Z,16.20
2018-03-22T06:34:17.265Z,19.30
2018-03-22T06:36:44.749Z,11.20
2018-03-22T06:39:12.241Z,14.70
2018-03-22T06:41:39.698Z,11.50
2018-03-22T06:44:07.147Z,11.20
2018-03-22T06:46:34.634Z,18.73
2018-03-22T06:49:02.865Z,15.97
2018-03-22T06:51:30.355Z,11.87
2018-03-22T06:53:57.830Z,14.33
2018-03-22T06:56:26.071Z,13.50
2018-03-22T06:58:53.613Z,13.23
2018-03-22T07:01:21.101Z,8.47
2018-03-22T07:03:48.596Z,8.90
2018-03-22T07:06:16.081Z,13.10
2018-03-22T07:08:43.650Z,9.87
2018-03-22T07:11:11.121Z,12.83
2018-03-22T07:13:38.573Z,10.80
2018-03-22T07:16:06.057Z,10.37
2018-03-22T07:18:33.505Z,6.90
2018-03-22T07:21:00.952Z,9.00
2018-03-22T07:23:28.432Z,12.50
2018-03-22T07:25:55.893Z,8.53
2018-03-22T07:28:23.360Z,9.47
2018-03-22T07:30:50.814Z,9.63
2018-03-22T07:33:18.301Z,8.37
2018-03-22T07:35:45.772Z,7.80
2018-03-22T07:38:13.257Z,13.10
2018-03-22T07:40:40.762Z,8.10
2018-03-22T07:43:14.613Z,7.80
2018-03-22T07:45:42.095Z,11.00
2018-03-22T07:48:09.557Z,11.23
2018-03-22T07:50:37.012Z,8.40
2018-03-22T07:53:04.498Z,11.10
2018-03-22T07:55:31.997Z,11.57
2018-03-22T07:57:59.457Z,12.53
2018-03-22T08:00:26.938Z,7.30
2018-03-22T08:03:01.955Z,8.67
2018-03-22T08:05:29.427Z,12.40
2018-03-22T08:07:56.916Z,7.83
2018-03-22T08:10:25.151Z,5.50
2018-03-22T08:12:52.633Z,6.40
2018-03-22T08:15:20.080Z,11.63
2018-03-22T08:17:47.530Z,6.90
2018-03-22T08:20:15.045Z,10.03
2018-03-22T08:22:42.498Z,10.03
2018-03-22T08:25:10.741Z,13.30
2018-03-22T08:27:38.209Z,29.57
2018-03-22T08:30:06.460Z,97.60
2018-03-22T08:32:34.123Z,186.60
2018-03-22T08:35:01.603Z,123.50
2018-03-22T08:37:29.100Z,93.27
2018-03-22T08:39:56.544Z,41.97
2018-03-22T08:42:24.766Z,22.83
2018-03-22T08:44:53.013Z,16.67
2018-03-22T08:47:20.489Z,24.53
2018-03-22T08:49:48.001Z,19.23
2018-03-22T08:52:16.246Z,9.60
2018-03-22T08:54:43.716Z,14.30
2018-03-22T08:57:11.172Z,17.93
2018-03-22T08:59:38.666Z,13.53
2018-03-22T09:02:06.906Z,24.47
2018-03-22T09:04:34.389Z,20.50
2018-03-22T09:07:02.612Z,15.73
2018-03-22T09:09:30.107Z,14.83
2018-03-22T09:11:57.566Z,6.97
2018-03-22T09:14:25.039Z,7.17
2018-03-22T09:16:52.518Z,10.30
2018-03-22T09:19:20.005Z,8.53
2018-03-22T09:21:47.482Z,8.50
2018-03-22T09:24:14.946Z,5.80
2018-03-22T09:26:48.136Z,7.50
2018-03-22T09:29:15.593Z,10.00
2018-03-22T09:31:43.074Z,10.30
2018-03-22T09:34:10.537Z,9.93
2018-03-22T09:36:38.032Z,3.87
2018-03-22T09:39:05.551Z,8.53
2018-03-22T09:41:33.029Z,10.23
2018-03-22T09:44:01.258Z,8.47
2018-03-22T09:46:28.733Z,8.43
2018-03-22T09:48:56.201Z,9.30
2018-03-22T09:51:23.672Z,12.13
2018-03-22T09:53:51.888Z,4.90
2018-03-22T09:56:19.366Z,4.90
2018-03-22T09:58:46.822Z,5.83
2018-03-22T10:01:14.293Z,9.13
2018-03-22T10:03:41.771Z,7.77
2018-03-22T10:06:10.016Z,8.67
2018-03-22T10:08:37.527Z,7.50
2018-03-22T10:11:04.996Z,10.10
2018-03-22T10:13:32.468Z,8.13
2018-03-22T10:15:59.949Z,9.77
2018-03-22T10:18:27.478Z,6.27
2018-03-22T10:20:54.949Z,10.90
2018-03-22T10:23:22.601Z,10.43
2018-03-22T10:25:50.096Z,10.47
2018-03-22T10:28:17.549Z,11.17
2018-03-22T10:30:45.022Z,10.30
2018-03-22T10:33:12.506Z,11.90
2018-03-22T10:35:40.742Z,10.33
2018-03-22T10:38:08.225Z,14.60
2018-03-22T10:40:35.673Z,17.10
2018-03-22T10:43:03.142Z,13.67
2018-03-22T10:45:30.616Z,15.10
2018-03-22T10:47:58.860Z,17.00
2018-03-22T10:50:26.340Z,17.93
2018-03-22T10:52:54.553Z,15.93
2018-03-22T10:55:22.030Z,15.17
2018-03-22T10:57:49.472Z,12.33
2018-03-22T11:00:22.649Z,14.07
2018-03-22T11:02:54.087Z,13.30
2018-03-22T11:05:22.317Z,12.30
2018-03-22T11:07:49.796Z,8.50
2018-03-22T11:10:17.289Z,12.10
2018-03-22T11:12:45.500Z,10.47
2018-03-22T11:15:12.985Z,14.00
2018-03-22T11:17:40.441Z,12.80
2018-03-22T11:20:07.952Z,9.77
2018-03-22T11:22:35.405Z,13.70
2018-03-22T11:25:02.865Z,7.77
2018-03-22T11:27:30.360Z,12.00
2018-03-22T11:29:57.801Z,13.17
2018-03-22T11:32:25.285Z,10.53
2018-03-22T11:34:52.741Z,8.90
2018-03-22T11:37:20.226Z,11.60
2018-03-22T11:39:47.703Z,12.27
2018-03-22T11:42:15.152Z,11.60
2018-03-22T11:44:42.654Z,11.97
2018-03-22T11:47:10.160Z,9.13
2018-03-22T11:49:38.432Z,10.27
2018-03-22T11:52:05.904Z,11.40
2018-03-22T11:54:34.137Z,11.97
2018-03-22T11:57:01.624Z,9.13
2018-03-22T11:59:29.076Z,13.50
2018-03-22T12:01:56.576Z,11.33
2018-03-22T12:04:24.025Z,13.83
2018-03-22T12:06:51.483Z,11.57
2018-03-22T12:09:18.970Z,10.20
2018-03-22T12:11:46.424Z,9.00
2018-03-22T12:14:13.892Z,8.27
2018-03-22T12:16:41.357Z,9.63
2018-03-22T12:19:08.849Z,9.47
2018-03-22T12:21:36.361Z,8.50
2018-03-22T12:24:03.813Z,5.50
2018-03-22T12:26:31.303Z,5.60
2018-03-22T12:28:58.761Z,6.90
2018-03-22T12:31:26.246Z,6.33
2018-03-22T12:33:54.477Z,9.03
2018-03-22T12:36:21.972Z,6.10
2018-03-22T12:38:49.417Z,6.30
2018-03-22T12:41:16.886Z,6.73
2018-03-22T12:43:44.412Z,6.60
2018-03-22T12:46:11.853Z,4.37
2018-03-22T12:48:39.389Z,6.27
2018-03-22T12:51:06.837Z,4.03
2018-03-22T12:53:35.127Z,6.00
2018-03-22T12:56:02.589Z,4.47
2018-03-22T12:58:30.080Z,5.00
2018-03-22T13:00:57.545Z,5.60
2018-03-22T13:03:25.021Z,5.57
2018-03-22T13:05:52.509Z,7.57
2018-03-22T13:08:20.765Z,7.30
2018-03-22T13:10:48.217Z,6.07
2018-03-22T13:13:15.701Z,5.33
2018-03-22T13:15:43.153Z,4.70
2018-03-22T13:18:10.744Z,3.80
2018-03-22T13:20:38.192Z,3.10
2018-03-22T13:23:05.669Z,2.70
2018-03-22T13:25:33.126Z,3.03
2018-03-22T13:28:00.577Z,2.07
2018-03-22T13:30:28.049Z,2.30
2018-03-22T13:32:55.502Z,3.20
2018-03-22T13:35:22.968Z,5.00
2018-03-22T13:37:50.433Z,3.40
2018-03-22T13:40:17.912Z,2.63
2018-03-22T13:42:45.381Z,2.77
2018-03-22T13:45:12.837Z,2.80
2018-03-22T13:47:40.309Z,3.53
2018-03-22T13:50:07.791Z,2.00
2018-03-22T13:52:35.237Z,3.37
2018-03-22T13:55:03.485Z,1.30
2018-03-22T13:57:30.942Z,2.67
2018-03-22T13:59:58.396Z,1.90
2018-03-22T14:02:25.873Z,2.10
2018-03-22T14:04:53.341Z,2.10
2018-03-22T14:07:21.577Z,1.63
2018-03-22T14:09:49.031Z,0.90
2018-03-22T14:12:16.523Z,1.10
2018-03-22T14:14:43.973Z,1.23
2018-03-22T14:17:11.421Z,1.07
2018-03-22T14:19:38.890Z,1.47
2018-03-22T14:22:06.336Z,0.60
2018-03-22T14:24:33.830Z,1.33
2018-03-22T14:27:01.284Z,1.17
2018-03-22T14:29:28.742Z,1.77
2018-03-22T14:31:56.227Z,2.03
2018-03-22T14:34:23.724Z,1.47
2018-03-22T14:36:51.208Z,1.47
2018-03-22T14:39:19.646Z,1.60
2018-03-22T14:41:47.920Z,1.37
2018-03-22T14:44:15.381Z,1.30
2018-03-22T14:46:42.860Z,1.00
2018-03-22T14:49:10.362Z,1.10
2018-03-22T14:51:37.805Z,1.80
2018-03-22T14:54:06.018Z,1.80
2018-03-22T14:56:36.801Z,1.80
2018-03-22T14:59:05.047Z,1.57
2018-03-22T15:01:32.611Z,1.67
2018-03-22T15:04:00.034Z,2.40
2018-03-22T15:06:27.492Z,1.77
2018-03-22T15:08:54.976Z,1.63
2018-03-22T15:11:22.429Z,1.63
2018-03-22T15:13:49.886Z,2.37
2018-03-22T15:16:17.361Z,1.53
2018-03-22T15:18:44.808Z,1.90
2018-03-22T15:21:12.343Z,1.63
2018-03-22T15:23:39.829Z,2.67
2018-03-22T15:26:07.288Z,2.37
2018-03-22T15:28:34.775Z,2.03
2018-03-22T15:31:02.573Z,3.40
2018-03-22T15:33:30.084Z,1.97
2018-03-22T15:35:57.552Z,2.43
2018-03-22T15:38:25.014Z,2.70
2018-03-22T15:40:52.495Z,3.27
2018-03-22T15:43:20.708Z,1.70
2018-03-22T15:45:48.185Z,4.57
2018-03-22T15:48:15.649Z,2.67
2018-03-22T15:50:43.128Z,1.83
2018-03-22T15:53:11.374Z,3.17
2018-03-22T15:55:38.845Z,1.97
2018-03-22T15:58:06.300Z,2.00
2018-03-22T16:00:33.757Z,1.80
2018-03-22T16:03:01.232Z,1.93
2018-03-22T16:05:28.692Z,2.30
2018-03-22T16:07:56.932Z,1.83
2018-03-22T16:10:24.400Z,1.80
2018-03-22T16:12:52.669Z,2.73
2018-03-22T16:15:20.121Z,2.23
2018-03-22T16:17:47.593Z,2.40
2018-03-22T16:20:15.069Z,1.83
2018-03-22T16:22:42.533Z,2.30
2018-03-22T16:25:10.021Z,2.20
2018-03-22T16:27:37.469Z,1.90
2018-03-22T16:30:06.773Z,4.77
2018-03-22T16:32:34.240Z,2.70
2018-03-22T16:35:01.710Z,2.00
2018-03-22T16:37:29.175Z,2.97
2018-03-22T16:39:56.657Z,2.80
2018-03-22T16:42:24.132Z,3.60
2018-03-22T16:44:51.601Z,3.37
2018-03-22T16:47:19.077Z,2.60
2018-03-22T16:49:46.564Z,2.93
2018-03-22T16:52:14.289Z,3.07
2018-03-22T16:54:42.539Z,3.80
2018-03-22T16:57:10.005Z,2.93
2018-03-22T16:59:37.628Z,2.23
2018-03-22T17:02:05.133Z,1.77
2018-03-22T17:04:33.413Z,2.90
2018-03-22T17:07:00.933Z,3.13
2018-03-22T17:09:28.434Z,2.27
2018-03-22T17:11:55.893Z,2.90
2018-03-22T17:14:23.372Z,3.80
2018-03-22T17:16:50.856Z,2.63
2018-03-22T17:19:18.333Z,4.10
2018-03-22T17:21:45.804Z,2.87
2018-03-22T17:24:13.256Z,3.30
2018-03-22T17:26:41.033Z,3.00
2018-03-22T17:29:08.548Z,3.33
2018-03-22T17:31:36.008Z,2.90
2018-03-22T17:34:03.503Z,4.70
2018-03-22T17:36:31.156Z,3.17
2018-03-22T17:38:58.674Z,3.20
2018-03-22T17:41:26.149Z,3.57
2018-03-22T17:43:53.628Z,2.50
2018-03-22T17:46:21.088Z,3.70
2018-03-22T17:48:48.946Z,4.40
2018-03-22T17:51:16.583Z,3.07
2018-03-22T17:53:44.057Z,5.57
2018-03-22T17:56:11.539Z,4.67
2018-03-22T17:58:39.132Z,5.37
2018-03-22T18:01:06.585Z,6.70
2018-03-22T18:03:34.053Z,8.50
2018-03-22T18:06:01.504Z,10.40
2018-03-22T18:08:29.039Z,9.47
2018-03-22T18:10:56.449Z,10.13
2018-03-22T18:13:23.925Z,9.63
2018-03-22T18:15:51.510Z,5.90
2018-03-22T18:18:19.056Z,8.10
2018-03-22T18:20:46.510Z,7.40
2018-03-22T18:23:13.997Z,7.50
2018-03-22T18:25:41.486Z,12.40
2018-03-22T18:28:09.742Z,10.77
2018-03-22T18:30:37.195Z,3.23
2018-03-22T18:33:04.669Z,5.43
2018-03-22T18:35:32.942Z,6.97
2018-03-22T18:38:00.358Z,7.23
2018-03-22T18:40:27.828Z,7.30
2018-03-22T18:42:55.582Z,7.30
2018-03-22T18:45:23.347Z,4.67
2018-03-22T18:47:51.078Z,7.40
2018-03-22T18:50:19.522Z,5.87
2018-03-22T18:52:47.872Z,7.87
2018-03-22T18:55:15.688Z,7.60
2018-03-22T18:57:43.415Z,6.27
2018-03-22T19:00:12.047Z,6.40
2018-03-22T19:02:39.733Z,8.40
2018-03-22T19:05:07.430Z,6.40
2018-03-22T19:07:35.215Z,7.77
2018-03-22T19:10:03.014Z,6.90
2018-03-22T19:12:30.730Z,9.07
2018-03-22T19:14:58.450Z,7.93
2018-03-22T19:17:26.170Z,7.87
2018-03-22T19:19:53.912Z,6.10
2018-03-22T19:22:26.061Z,3.93
2018-03-22T19:24:54.616Z,3.90
2018-03-22T19:27:22.293Z,5.10
2018-03-22T19:29:50.673Z,5.37
2018-03-22T19:32:19.266Z,5.70
2018-03-22T19:34:49.365Z,5.50
2018-03-22T19:37:17.141Z,6.00
2018-03-22T19:39:45.014Z,5.80
2018-03-22T19:42:12.827Z,6.20
2018-03-22T19:44:40.638Z,5.80
2018-03-22T19:47:10.878Z,5.60
2018-03-22T19:49:38.561Z,7.27
2018-03-22T19:52:06.052Z,8.20
2018-03-22T19:54:34.360Z,7.20
2018-03-22T19:57:01.903Z,9.00
2018-03-22T19:59:30.241Z,8.50
2018-03-22T20:01:57.741Z,8.43
2018-03-22T20:04:25.347Z,7.90
2018-03-22T20:06:52.867Z,8.03
2018-03-22T20:09:21.301Z,8.00
2018-03-22T20:11:48.935Z,3.97
2018-03-22T20:14:16.424Z,7.03
2018-03-22T20:16:44.019Z,7.07
2018-03-22T20:19:11.601Z,7.47
2018-03-22T20:21:39.133Z,7.33
2018-03-22T20:24:06.620Z,6.60
2018-03-22T20:26:34.267Z,7.53
2018-03-22T20:29:02.214Z,7.87
2018-03-22T20:31:29.911Z,8.30
2018-03-22T20:33:57.518Z,7.10
2018-03-22T20:36:24.984Z,8.60
2018-03-22T20:38:52.726Z,7.40
2018-03-22T20:41:20.312Z,9.40
2018-03-22T20:43:47.876Z,7.30
2018-03-22T20:46:15.332Z,9.70
2018-03-22T20:48:42.839Z,9.13
2018-03-22T20:51:10.559Z,10.07
2018-03-22T20:53:38.143Z,11.53
2018-03-22T20:56:05.672Z,10.20
2018-03-22T20:58:33.243Z,11.97
2018-03-22T21:01:01.739Z,13.10
2018-03-22T21:03:29.981Z,13.00
2018-03-22T21:05:57.577Z,18.00
2018-03-22T21:08:25.260Z,16.80
2018-03-22T21:10:53.473Z,13.50
2018-03-22T21:13:21.717Z,12.97
2018-03-22T21:15:49.169Z,12.43
2018-03-22T21:18:16.648Z,13.10
2018-03-22T21:20:44.144Z,13.10
2018-03-22T21:23:11.611Z,14.07
2018-03-22T21:25:39.099Z,13.30
2018-03-22T21:28:07.321Z,16.50
2018-03-22T21:30:34.789Z,16.73
2018-03-22T21:33:02.274Z,16.20
2018-03-22T21:35:29.721Z,15.70
2018-03-22T21:37:57.176Z,16.93
2018-03-22T21:40:24.744Z,16.33
2018-03-22T21:42:52.200Z,18.60
2018-03-22T21:45:19.669Z,17.17
2018-03-22T21:47:47.136Z,15.43
2018-03-22T21:50:14.616Z,15.60
2018-03-22T21:52:46.801Z,18.17
2018-03-22T21:55:14.297Z,17.40
2018-03-22T21:57:41.745Z,15.57
2018-03-22T22:00:09.243Z,16.83
2018-03-22T22:02:36.689Z,14.40
2018-03-22T22:05:04.909Z,16.23
2018-03-22T22:07:32.392Z,16.23
2018-03-22T22:09:59.840Z,13.57
2018-03-22T22:12:28.077Z,14.23
2018-03-22T22:14:55.556Z,13.57
2018-03-22T22:17:23.008Z,15.30
2018-03-22T22:19:50.458Z,15.70
2018-03-22T22:22:17.949Z,13.40
2018-03-22T22:24:45.405Z,14.37
2018-03-22T22:27:13.624Z,15.50
2018-03-22T22:29:41.202Z,14.37
2018-03-22T22:32:08.652Z,12.67
2018-03-22T22:34:36.134Z,15.00
2018-03-22T22:37:03.589Z,13.30
2018-03-22T22:39:31.060Z,13.13
2018-03-22T22:41:58.512Z,12.40
2018-03-22T22:44:25.981Z,16.30
2018-03-22T22:46:53.435Z,13.27
2018-03-22T22:49:20.908Z,13.77
2018-03-22T22:51:48.386Z,14.47
2018-03-22T22:54:15.833Z,15.30
2018-03-22T22:56:43.342Z,14.13
2018-03-22T22:59:10.793Z,13.80
2018-03-22T23:01:38.268Z,15.57
2018-03-22T23:04:05.748Z,13.23
2018-03-22T23:06:33.202Z,14.00
2018-03-22T23:09:00.672Z,14.13
2018-03-22T23:11:28.125Z,14.50
2018-03-22T23:13:55.610Z,14.53
2018-03-22T23:16:23.102Z,15.10
2018-03-22T23:18:51.341Z,14.90
2018-03-22T23:21:18.809Z,18.40
2018-03-22T23:23:46.319Z,15.50
2018-03-22T23:26:13.797Z,18.27
2018-03-22T23:28:41.249Z,15.73
2018-03-22T23:31:08.693Z,16.87
2018-03-22T23:33:36.174Z,15.63
2018-03-22T23:36:03.623Z,17.50
2018-03-22T23:38:31.072Z,18.13
2018-03-22T23:40:58.549Z,16.10
2018-03-22T23:43:25.996Z,17.30
2018-03-22T23:45:53.465Z,16.70
2018-03-22T23:48:20.936Z,16.73
2018-03-22T23:50:48.412Z,16.27
2018-03-22T23:53:15.897Z,18.33
2018-03-22T23:55:43.348Z,17.10
2018-03-22T23:58:10.801Z,18.87
